sensor_id;sensor_type;location;lat;lon;timestamp;P1;durP1;ratioP1;P2;durP2;ratioP2
33954;SDS011;20233;50.804;7.126;2023-05-15T00:01:33;3.10;;;2.58;;
33954;SDS011;20233;50.804;7.126;2023-05-15T00:04:00;4.25;;;2.65;;
33954;SDS011;20233;50.804;7.126;2023-05-15T00:06:26;4.75;;;2.53;;
33954;SDS011;20233;50.804;7.126;2023-05-15T00:08:52;5.20;;;3.03;;
33954;SDS011;20233;50.804;7.126;2023-05-15T00:11:18;5.55;;;3.15;;
33954;SDS011;20233;50.804;7.126;2023-05-15T00:13:44;3.72;;;3.00;;
33954;SDS011;20233;50.804;7.126;2023-05-15T00:16:09;3.47;;;2.85;;
33954;SDS011;20233;50.804;7.126;2023-05-15T00:18:35;6.50;;;3.28;;
33954;SDS011;20233;50.804;7.126;2023-05-15T00:21:02;4.97;;;3.58;;
33954;SDS011;20233;50.804;7.126;2023-05-15T00:23:27;4.82;;;3.60;;
33954;SDS011;20233;50.804;7.126;2023-05-15T00:25:53;4.80;;;3.03;;
33954;SDS011;20233;50.804;7.126;2023-05-15T00:28:18;6.18;;;4.32;;
33954;SDS011;20233;50.804;7.126;2023-05-15T00:30:44;6.40;;;3.20;;
33954;SDS011;20233;50.804;7.126;2023-05-15T00:33:09;5.28;;;3.55;;
33954;SDS011;20233;50.804;7.126;2023-05-15T00:35:35;6.25;;;3.83;;
33954;SDS011;20233;50.804;7.126;2023-05-15T00:38:00;4.78;;;3.03;;
33954;SDS011;20233;50.804;7.126;2023-05-15T00:40:26;4.38;;;3.05;;
33954;SDS011;20233;50.804;7.126;2023-05-15T00:42:52;6.20;;;4.60;;
33954;SDS011;20233;50.804;7.126;2023-05-15T00:45:18;8.07;;;3.50;;
33954;SDS011;20233;50.804;7.126;2023-05-15T00:47:45;6.05;;;4.65;;
33954;SDS011;20233;50.804;7.126;2023-05-15T00:50:11;4.43;;;3.55;;
33954;SDS011;20233;50.804;7.126;2023-05-15T00:52:39;5.78;;;4.13;;
33954;SDS011;20233;50.804;7.126;2023-05-15T00:55:06;5.50;;;3.53;;
33954;SDS011;20233;50.804;7.126;2023-05-15T00:57:32;5.90;;;3.38;;
33954;SDS011;20233;50.804;7.126;2023-05-15T00:59:59;4.72;;;3.30;;
33954;SDS011;20233;50.804;7.126;2023-05-15T01:02:26;6.18;;;3.85;;
33954;SDS011;20233;50.804;7.126;2023-05-15T01:04:51;7.25;;;4.43;;
33954;SDS011;20233;50.804;7.126;2023-05-15T01:07:17;5.57;;;3.83;;
33954;SDS011;20233;50.804;7.126;2023-05-15T01:09:43;6.55;;;3.72;;
33954;SDS011;20233;50.804;7.126;2023-05-15T01:12:11;6.35;;;3.75;;
33954;SDS011;20233;50.804;7.126;2023-05-15T01:14:39;4.40;;;3.58;;
33954;SDS011;20233;50.804;7.126;2023-05-15T01:17:06;7.63;;;3.83;;
33954;SDS011;20233;50.804;7.126;2023-05-15T01:19:32;4.50;;;3.60;;
33954;SDS011;20233;50.804;7.126;2023-05-15T01:27:44;7.10;;;3.30;;
33954;SDS011;20233;50.804;7.126;2023-05-15T01:33:02;8.27;;;3.40;;
33954;SDS011;20233;50.804;7.126;2023-05-15T01:36:00;5.93;;;3.50;;
33954;SDS011;20233;50.804;7.126;2023-05-15T01:38:41;4.60;;;3.80;;
33954;SDS011;20233;50.804;7.126;2023-05-15T01:41:21;5.13;;;4.32;;
33954;SDS011;20233;50.804;7.126;2023-05-15T01:44:36;4.22;;;3.63;;
33954;SDS011;20233;50.804;7.126;2023-05-15T01:46:43;7.15;;;4.32;;
33954;SDS011;20233;50.804;7.126;2023-05-15T01:49:12;6.30;;;3.72;;
33954;SDS011;20233;50.804;7.126;2023-05-15T01:51:40;5.43;;;3.92;;
33954;SDS011;20233;50.804;7.126;2023-05-15T01:54:09;5.55;;;4.00;;
33954;SDS011;20233;50.804;7.126;2023-05-15T01:56:36;5.65;;;4.28;;
33954;SDS011;20233;50.804;7.126;2023-05-15T01:59:04;6.15;;;4.03;;
33954;SDS011;20233;50.804;7.126;2023-05-15T02:01:31;5.57;;;4.07;;
33954;SDS011;20233;50.804;7.126;2023-05-15T02:03:58;7.40;;;4.50;;
33954;SDS011;20233;50.804;7.126;2023-05-15T02:06:25;5.75;;;4.30;;
33954;SDS011;20233;50.804;7.126;2023-05-15T02:08:52;12.80;;;4.78;;
33954;SDS011;20233;50.804;7.126;2023-05-15T02:11:20;5.72;;;4.35;;
33954;SDS011;20233;50.804;7.126;2023-05-15T02:13:46;6.32;;;3.75;;
33954;SDS011;20233;50.804;7.126;2023-05-15T02:16:12;10.93;;;4.30;;
33954;SDS011;20233;50.804;7.126;2023-05-15T02:18:38;6.70;;;5.00;;
33954;SDS011;20233;50.804;7.126;2023-05-15T02:21:05;7.78;;;4.85;;
33954;SDS011;20233;50.804;7.126;2023-05-15T02:23:31;5.93;;;5.03;;
33954;SDS011;20233;50.804;7.126;2023-05-15T02:29:02;12.45;;;8.52;;
33954;SDS011;20233;50.804;7.126;2023-05-15T02:31:34;13.05;;;9.55;;
33954;SDS011;20233;50.804;7.126;2023-05-15T02:34:16;11.15;;;7.68;;
33954;SDS011;20233;50.804;7.126;2023-05-15T02:36:49;18.10;;;11.15;;
33954;SDS011;20233;50.804;7.126;2023-05-15T02:39:17;14.55;;;10.63;;
33954;SDS011;20233;50.804;7.126;2023-05-15T02:41:44;14.20;;;10.93;;
33954;SDS011;20233;50.804;7.126;2023-05-15T02:44:10;14.35;;;11.45;;
33954;SDS011;20233;50.804;7.126;2023-05-15T02:46:37;16.38;;;11.63;;
33954;SDS011;20233;50.804;7.126;2023-05-15T02:49:03;21.33;;;14.55;;
33954;SDS011;20233;50.804;7.126;2023-05-15T02:51:29;21.52;;;15.65;;
33954;SDS011;20233;50.804;7.126;2023-05-15T02:53:55;22.92;;;15.38;;
33954;SDS011;20233;50.804;7.126;2023-05-15T02:56:21;19.90;;;14.18;;
33954;SDS011;20233;50.804;7.126;2023-05-15T02:58:47;17.58;;;13.88;;
33954;SDS011;20233;50.804;7.126;2023-05-15T03:01:15;17.90;;;14.38;;
33954;SDS011;20233;50.804;7.126;2023-05-15T03:03:41;24.42;;;15.60;;
33954;SDS011;20233;50.804;7.126;2023-05-15T03:06:06;22.35;;;16.67;;
33954;SDS011;20233;50.804;7.126;2023-05-15T03:08:32;32.25;;;19.25;;
33954;SDS011;20233;50.804;7.126;2023-05-15T03:10:57;60.50;;;30.88;;
33954;SDS011;20233;50.804;7.126;2023-05-15T03:13:23;60.13;;;32.25;;
33954;SDS011;20233;50.804;7.126;2023-05-15T03:15:48;75.32;;;36.67;;
33954;SDS011;20233;50.804;7.126;2023-05-15T03:18:14;72.32;;;34.83;;
33954;SDS011;20233;50.804;7.126;2023-05-15T03:20:39;69.25;;;36.00;;
33954;SDS011;20233;50.804;7.126;2023-05-15T03:23:06;75.28;;;37.42;;
33954;SDS011;20233;50.804;7.126;2023-05-15T03:25:31;89.38;;;40.50;;
33954;SDS011;20233;50.804;7.126;2023-05-15T03:27:57;80.35;;;38.92;;
33954;SDS011;20233;50.804;7.126;2023-05-15T03:30:22;78.68;;;39.63;;
33954;SDS011;20233;50.804;7.126;2023-05-15T03:32:48;84.05;;;41.05;;
33954;SDS011;20233;50.804;7.126;2023-05-15T03:35:13;90.03;;;44.03;;
33954;SDS011;20233;50.804;7.126;2023-05-15T03:37:39;88.25;;;41.95;;
33954;SDS011;20233;50.804;7.126;2023-05-15T03:40:05;93.90;;;45.08;;
33954;SDS011;20233;50.804;7.126;2023-05-15T03:42:31;86.53;;;45.45;;
33954;SDS011;20233;50.804;7.126;2023-05-15T03:44:57;83.25;;;42.58;;
33954;SDS011;20233;50.804;7.126;2023-05-15T03:47:22;94.65;;;45.50;;
33954;SDS011;20233;50.804;7.126;2023-05-15T03:49:48;87.65;;;43.33;;
33954;SDS011;20233;50.804;7.126;2023-05-15T03:52:13;90.07;;;44.25;;
33954;SDS011;20233;50.804;7.126;2023-05-15T03:54:39;89.18;;;44.72;;
33954;SDS011;20233;50.804;7.126;2023-05-15T03:57:06;82.32;;;41.75;;
33954;SDS011;20233;50.804;7.126;2023-05-15T03:59:31;85.88;;;44.15;;
33954;SDS011;20233;50.804;7.126;2023-05-15T04:01:57;82.20;;;42.72;;
33954;SDS011;20233;50.804;7.126;2023-05-15T04:04:23;87.00;;;45.20;;
33954;SDS011;20233;50.804;7.126;2023-05-15T04:06:49;89.10;;;46.50;;
33954;SDS011;20233;50.804;7.126;2023-05-15T04:09:15;89.35;;;44.13;;
33954;SDS011;20233;50.804;7.126;2023-05-15T04:11:40;90.63;;;46.00;;
33954;SDS011;20233;50.804;7.126;2023-05-15T04:14:06;89.00;;;44.13;;
33954;SDS011;20233;50.804;7.126;2023-05-15T04:16:32;92.28;;;46.47;;
33954;SDS011;20233;50.804;7.126;2023-05-15T04:18:57;92.68;;;45.08;;
33954;SDS011;20233;50.804;7.126;2023-05-15T04:21:23;93.80;;;45.97;;
33954;SDS011;20233;50.804;7.126;2023-05-15T04:23:48;94.07;;;45.65;;
33954;SDS011;20233;50.804;7.126;2023-05-15T04:26:14;86.15;;;43.35;;
33954;SDS011;20233;50.804;7.126;2023-05-15T04:28:40;85.93;;;46.40;;
33954;SDS011;20233;50.804;7.126;2023-05-15T04:31:06;82.68;;;45.53;;
33954;SDS011;20233;50.804;7.126;2023-05-15T04:33:31;90.53;;;44.35;;
33954;SDS011;20233;50.804;7.126;2023-05-15T04:35:57;84.40;;;44.35;;
33954;SDS011;20233;50.804;7.126;2023-05-15T04:38:22;87.43;;;45.10;;
33954;SDS011;20233;50.804;7.126;2023-05-15T04:40:48;84.75;;;45.58;;
33954;SDS011;20233;50.804;7.126;2023-05-15T04:43:13;83.32;;;43.30;;
33954;SDS011;20233;50.804;7.126;2023-05-15T04:45:39;78.40;;;42.75;;
33954;SDS011;20233;50.804;7.126;2023-05-15T04:48:05;84.88;;;45.60;;
33954;SDS011;20233;50.804;7.126;2023-05-15T04:50:30;83.13;;;46.03;;
33954;SDS011;20233;50.804;7.126;2023-05-15T04:52:56;82.88;;;46.17;;
33954;SDS011;20233;50.804;7.126;2023-05-15T04:55:21;90.65;;;48.80;;
33954;SDS011;20233;50.804;7.126;2023-05-15T04:57:48;88.13;;;50.03;;
33954;SDS011;20233;50.804;7.126;2023-05-15T05:00:13;89.55;;;48.42;;
33954;SDS011;20233;50.804;7.126;2023-05-15T05:02:40;86.30;;;47.67;;
33954;SDS011;20233;50.804;7.126;2023-05-15T05:05:07;85.75;;;47.20;;
33954;SDS011;20233;50.804;7.126;2023-05-15T05:07:33;77.15;;;43.78;;
33954;SDS011;20233;50.804;7.126;2023-05-15T05:10:01;80.82;;;45.05;;
33954;SDS011;20233;50.804;7.126;2023-05-15T05:12:28;82.30;;;45.75;;
33954;SDS011;20233;50.804;7.126;2023-05-15T05:14:53;76.53;;;42.83;;
33954;SDS011;20233;50.804;7.126;2023-05-15T05:17:20;74.22;;;40.65;;
33954;SDS011;20233;50.804;7.126;2023-05-15T05:19:46;71.68;;;41.40;;
33954;SDS011;20233;50.804;7.126;2023-05-15T05:22:12;67.03;;;39.53;;
33954;SDS011;20233;50.804;7.126;2023-05-15T05:24:37;71.00;;;39.90;;
33954;SDS011;20233;50.804;7.126;2023-05-15T05:27:03;57.95;;;36.85;;
33954;SDS011;20233;50.804;7.126;2023-05-15T05:29:29;66.72;;;39.35;;
33954;SDS011;20233;50.804;7.126;2023-05-15T05:31:55;65.20;;;43.13;;
33954;SDS011;20233;50.804;7.126;2023-05-15T05:34:21;70.70;;;44.22;;
33954;SDS011;20233;50.804;7.126;2023-05-15T05:36:47;70.68;;;44.47;;
33954;SDS011;20233;50.804;7.126;2023-05-15T05:39:12;70.40;;;43.83;;
33954;SDS011;20233;50.804;7.126;2023-05-15T05:41:40;73.53;;;44.90;;
33954;SDS011;20233;50.804;7.126;2023-05-15T05:44:05;78.70;;;46.53;;
33954;SDS011;20233;50.804;7.126;2023-05-15T05:46:31;77.40;;;48.08;;
33954;SDS011;20233;50.804;7.126;2023-05-15T05:48:56;80.25;;;49.38;;
33954;SDS011;20233;50.804;7.126;2023-05-15T05:51:22;74.60;;;48.08;;
33954;SDS011;20233;50.804;7.126;2023-05-15T05:53:48;78.13;;;46.40;;
33954;SDS011;20233;50.804;7.126;2023-05-15T05:56:13;73.90;;;46.10;;
33954;SDS011;20233;50.804;7.126;2023-05-15T05:58:39;72.63;;;45.58;;
33954;SDS011;20233;50.804;7.126;2023-05-15T06:01:04;74.20;;;44.75;;
33954;SDS011;20233;50.804;7.126;2023-05-15T06:03:31;78.35;;;46.22;;
33954;SDS011;20233;50.804;7.126;2023-05-15T06:05:58;74.80;;;46.03;;
33954;SDS011;20233;50.804;7.126;2023-05-15T06:08:23;76.80;;;47.15;;
33954;SDS011;20233;50.804;7.126;2023-05-15T06:10:49;78.15;;;44.72;;
33954;SDS011;20233;50.804;7.126;2023-05-15T06:13:14;77.15;;;45.50;;
33954;SDS011;20233;50.804;7.126;2023-05-15T06:15:40;81.20;;;46.42;;
33954;SDS011;20233;50.804;7.126;2023-05-15T06:18:07;81.25;;;49.17;;
33954;SDS011;20233;50.804;7.126;2023-05-15T06:20:32;79.95;;;48.28;;
33954;SDS011;20233;50.804;7.126;2023-05-15T06:22:58;82.10;;;46.80;;
33954;SDS011;20233;50.804;7.126;2023-05-15T06:25:23;84.57;;;48.55;;
33954;SDS011;20233;50.804;7.126;2023-05-15T06:27:49;83.72;;;48.88;;
33954;SDS011;20233;50.804;7.126;2023-05-15T06:30:15;84.47;;;49.30;;
33954;SDS011;20233;50.804;7.126;2023-05-15T06:32:40;81.20;;;46.63;;
33954;SDS011;20233;50.804;7.126;2023-05-15T06:35:08;86.72;;;47.03;;
33954;SDS011;20233;50.804;7.126;2023-05-15T06:37:34;84.47;;;46.85;;
33954;SDS011;20233;50.804;7.126;2023-05-15T06:40:00;77.60;;;44.70;;
33954;SDS011;20233;50.804;7.126;2023-05-15T06:42:27;77.65;;;44.58;;
33954;SDS011;20233;50.804;7.126;2023-05-15T06:44:52;76.57;;;45.75;;
33954;SDS011;20233;50.804;7.126;2023-05-15T06:47:18;73.15;;;44.53;;
33954;SDS011;20233;50.804;7.126;2023-05-15T06:49:43;75.68;;;44.65;;
33954;SDS011;20233;50.804;7.126;2023-05-15T06:52:09;70.78;;;43.83;;
33954;SDS011;20233;50.804;7.126;2023-05-15T06:54:35;78.80;;;49.33;;
33954;SDS011;20233;50.804;7.126;2023-05-15T06:57:01;75.40;;;46.47;;
33954;SDS011;20233;50.804;7.126;2023-05-15T06:59:26;73.68;;;45.20;;
33954;SDS011;20233;50.804;7.126;2023-05-15T07:01:52;73.25;;;45.75;;
33954;SDS011;20233;50.804;7.126;2023-05-15T07:04:18;70.30;;;46.03;;
33954;SDS011;20233;50.804;7.126;2023-05-15T07:06:44;74.78;;;45.15;;
33954;SDS011;20233;50.804;7.126;2023-05-15T07:09:11;69.68;;;44.70;;
33954;SDS011;20233;50.804;7.126;2023-05-15T07:11:37;69.88;;;44.95;;
33954;SDS011;20233;50.804;7.126;2023-05-15T07:14:03;67.82;;;42.22;;
33954;SDS011;20233;50.804;7.126;2023-05-15T07:16:29;62.58;;;41.55;;
33954;SDS011;20233;50.804;7.126;2023-05-15T07:18:55;66.10;;;43.28;;
33954;SDS011;20233;50.804;7.126;2023-05-15T07:21:20;68.75;;;43.42;;
33954;SDS011;20233;50.804;7.126;2023-05-15T07:23:46;72.72;;;45.20;;
33954;SDS011;20233;50.804;7.126;2023-05-15T07:26:15;74.97;;;45.88;;
33954;SDS011;20233;50.804;7.126;2023-05-15T07:28:40;70.03;;;44.92;;
33954;SDS011;20233;50.804;7.126;2023-05-15T07:31:06;77.15;;;46.90;;
33954;SDS011;20233;50.804;7.126;2023-05-15T07:33:32;71.90;;;45.17;;
33954;SDS011;20233;50.804;7.126;2023-05-15T07:35:57;68.50;;;43.75;;
33954;SDS011;20233;50.804;7.126;2023-05-15T07:38:23;71.07;;;42.90;;
33954;SDS011;20233;50.804;7.126;2023-05-15T07:40:48;67.95;;;42.95;;
33954;SDS011;20233;50.804;7.126;2023-05-15T07:43:14;70.78;;;43.15;;
33954;SDS011;20233;50.804;7.126;2023-05-15T07:45:40;68.72;;;42.67;;
33954;SDS011;20233;50.804;7.126;2023-05-15T07:48:14;64.05;;;42.40;;
33954;SDS011;20233;50.804;7.126;2023-05-15T07:50:41;75.88;;;45.72;;
33954;SDS011;20233;50.804;7.126;2023-05-15T07:53:06;76.22;;;45.45;;
33954;SDS011;20233;50.804;7.126;2023-05-15T07:55:32;68.97;;;46.00;;
33954;SDS011;20233;50.804;7.126;2023-05-15T07:57:57;69.70;;;43.10;;
33954;SDS011;20233;50.804;7.126;2023-05-15T08:00:23;67.30;;;44.70;;
33954;SDS011;20233;50.804;7.126;2023-05-15T08:02:49;72.35;;;43.28;;
33954;SDS011;20233;50.804;7.126;2023-05-15T08:05:14;66.80;;;42.70;;
33954;SDS011;20233;50.804;7.126;2023-05-15T08:07:40;69.25;;;42.60;;
33954;SDS011;20233;50.804;7.126;2023-05-15T08:10:06;69.88;;;43.55;;
33954;SDS011;20233;50.804;7.126;2023-05-15T08:12:32;70.50;;;44.92;;
33954;SDS011;20233;50.804;7.126;2023-05-15T08:14:58;67.00;;;42.47;;
33954;SDS011;20233;50.804;7.126;2023-05-15T08:17:23;75.90;;;44.63;;
33954;SDS011;20233;50.804;7.126;2023-05-15T08:19:49;70.28;;;44.28;;
33954;SDS011;20233;50.804;7.126;2023-05-15T08:22:16;71.70;;;43.05;;
33954;SDS011;20233;50.804;7.126;2023-05-15T08:24:42;69.82;;;43.10;;
33954;SDS011;20233;50.804;7.126;2023-05-15T08:27:08;69.10;;;42.40;;
33954;SDS011;20233;50.804;7.126;2023-05-15T08:29:34;68.55;;;43.05;;
33954;SDS011;20233;50.804;7.126;2023-05-15T08:32:00;69.82;;;43.80;;
33954;SDS011;20233;50.804;7.126;2023-05-15T08:34:26;66.57;;;42.30;;
33954;SDS011;20233;50.804;7.126;2023-05-15T08:36:52;72.38;;;42.58;;
33954;SDS011;20233;50.804;7.126;2023-05-15T08:39:18;70.38;;;43.33;;
33954;SDS011;20233;50.804;7.126;2023-05-15T08:41:51;70.88;;;42.20;;
33954;SDS011;20233;50.804;7.126;2023-05-15T08:44:22;68.53;;;43.83;;
33954;SDS011;20233;50.804;7.126;2023-05-15T08:46:48;65.65;;;41.50;;
33954;SDS011;20233;50.804;7.126;2023-05-15T08:51:44;62.90;;;40.42;;
33954;SDS011;20233;50.804;7.126;2023-05-15T08:54:12;67.53;;;43.00;;
33954;SDS011;20233;50.804;7.126;2023-05-15T08:56:38;68.85;;;42.53;;
33954;SDS011;20233;50.804;7.126;2023-05-15T08:59:05;65.78;;;42.53;;
33954;SDS011;20233;50.804;7.126;2023-05-15T09:01:31;65.45;;;41.42;;
33954;SDS011;20233;50.804;7.126;2023-05-15T09:03:57;62.78;;;40.58;;
33954;SDS011;20233;50.804;7.126;2023-05-15T09:06:23;67.68;;;41.78;;
33954;SDS011;20233;50.804;7.126;2023-05-15T09:08:49;63.00;;;41.83;;
33954;SDS011;20233;50.804;7.126;2023-05-15T09:11:19;71.10;;;42.22;;
33954;SDS011;20233;50.804;7.126;2023-05-15T09:13:47;64.15;;;40.75;;
33954;SDS011;20233;50.804;7.126;2023-05-15T09:16:13;64.57;;;41.60;;
33954;SDS011;20233;50.804;7.126;2023-05-15T09:18:38;64.82;;;40.92;;
33954;SDS011;20233;50.804;7.126;2023-05-15T09:21:20;64.72;;;41.60;;
33954;SDS011;20233;50.804;7.126;2023-05-15T09:23:47;62.70;;;40.30;;
33954;SDS011;20233;50.804;7.126;2023-05-15T09:26:13;62.92;;;41.17;;
33954;SDS011;20233;50.804;7.126;2023-05-15T09:28:39;61.03;;;41.75;;
33954;SDS011;20233;50.804;7.126;2023-05-15T09:31:04;63.80;;;41.03;;
33954;SDS011;20233;50.804;7.126;2023-05-15T09:33:40;61.80;;;41.70;;
33954;SDS011;20233;50.804;7.126;2023-05-15T09:36:08;60.63;;;40.15;;
33954;SDS011;20233;50.804;7.126;2023-05-15T09:38:38;61.72;;;39.38;;
33954;SDS011;20233;50.804;7.126;2023-05-15T09:41:06;61.58;;;41.75;;
33954;SDS011;20233;50.804;7.126;2023-05-15T09:43:36;61.60;;;41.53;;
33954;SDS011;20233;50.804;7.126;2023-05-15T09:46:03;60.22;;;40.88;;
33954;SDS011;20233;50.804;7.126;2023-05-15T09:48:30;59.80;;;40.20;;
33954;SDS011;20233;50.804;7.126;2023-05-15T09:50:56;61.42;;;40.78;;
33954;SDS011;20233;50.804;7.126;2023-05-15T09:53:22;61.88;;;43.55;;
33954;SDS011;20233;50.804;7.126;2023-05-15T09:55:48;58.63;;;39.03;;
33954;SDS011;20233;50.804;7.126;2023-05-15T09:58:15;58.45;;;41.05;;
33954;SDS011;20233;50.804;7.126;2023-05-15T10:00:42;55.13;;;39.70;;
33954;SDS011;20233;50.804;7.126;2023-05-15T10:03:10;54.50;;;39.60;;
33954;SDS011;20233;50.804;7.126;2023-05-15T10:05:37;55.00;;;38.90;;
33954;SDS011;20233;50.804;7.126;2023-05-15T10:08:03;54.88;;;37.95;;
33954;SDS011;20233;50.804;7.126;2023-05-15T10:10:29;55.72;;;38.25;;
33954;SDS011;20233;50.804;7.126;2023-05-15T10:12:56;57.42;;;41.00;;
33954;SDS011;20233;50.804;7.126;2023-05-15T10:15:24;53.60;;;38.78;;
33954;SDS011;20233;50.804;7.126;2023-05-15T10:17:51;52.63;;;38.60;;
33954;SDS011;20233;50.804;7.126;2023-05-15T10:20:17;51.65;;;38.03;;
33954;SDS011;20233;50.804;7.126;2023-05-15T10:22:45;51.05;;;37.67;;
33954;SDS011;20233;50.804;7.126;2023-05-15T10:25:15;51.80;;;37.72;;
33954;SDS011;20233;50.804;7.126;2023-05-15T10:27:42;53.80;;;38.95;;
33954;SDS011;20233;50.804;7.126;2023-05-15T10:30:10;54.60;;;39.05;;
33954;SDS011;20233;50.804;7.126;2023-05-15T10:32:38;49.20;;;35.25;;
33954;SDS011;20233;50.804;7.126;2023-05-15T10:35:05;50.72;;;36.15;;
33954;SDS011;20233;50.804;7.126;2023-05-15T10:37:34;46.15;;;35.97;;
33954;SDS011;20233;50.804;7.126;2023-05-15T10:40:00;46.00;;;35.05;;
33954;SDS011;20233;50.804;7.126;2023-05-15T10:42:27;47.80;;;34.85;;
33954;SDS011;20233;50.804;7.126;2023-05-15T10:44:54;44.80;;;34.35;;
33954;SDS011;20233;50.804;7.126;2023-05-15T10:47:28;47.30;;;34.78;;
33954;SDS011;20233;50.804;7.126;2023-05-15T10:49:54;47.78;;;35.17;;
33954;SDS011;20233;50.804;7.126;2023-05-15T10:52:21;49.70;;;36.22;;
33954;SDS011;20233;50.804;7.126;2023-05-15T10:54:46;46.45;;;33.50;;
33954;SDS011;20233;50.804;7.126;2023-05-15T10:57:13;45.08;;;33.97;;
33954;SDS011;20233;50.804;7.126;2023-05-15T10:59:39;47.50;;;32.78;;
33954;SDS011;20233;50.804;7.126;2023-05-15T11:04:43;36.42;;;28.27;;
33954;SDS011;20233;50.804;7.126;2023-05-15T11:07:10;36.97;;;26.70;;
33954;SDS011;20233;50.804;7.126;2023-05-15T11:09:38;36.95;;;27.55;;
33954;SDS011;20233;50.804;7.126;2023-05-15T11:12:04;31.38;;;25.08;;
33954;SDS011;20233;50.804;7.126;2023-05-15T11:14:33;33.47;;;23.85;;
33954;SDS011;20233;50.804;7.126;2023-05-15T11:17:07;31.23;;;24.80;;
33954;SDS011;20233;50.804;7.126;2023-05-15T11:22:19;30.55;;;22.45;;
33954;SDS011;20233;50.804;7.126;2023-05-15T11:27:30;33.23;;;22.73;;
33954;SDS011;20233;50.804;7.126;2023-05-15T11:35:23;28.42;;;21.05;;
33954;SDS011;20233;50.804;7.126;2023-05-15T11:38:09;27.73;;;19.27;;
33954;SDS011;20233;50.804;7.126;2023-05-15T11:43:22;22.45;;;15.75;;
33954;SDS011;20233;50.804;7.126;2023-05-15T11:48:45;21.40;;;16.45;;
33954;SDS011;20233;50.804;7.126;2023-05-15T11:51:17;23.17;;;16.65;;
33954;SDS011;20233;50.804;7.126;2023-05-15T11:53:52;24.63;;;15.13;;
33954;SDS011;20233;50.804;7.126;2023-05-15T11:56:19;20.40;;;15.25;;
33954;SDS011;20233;50.804;7.126;2023-05-15T11:58:47;15.82;;;12.30;;
33954;SDS011;20233;50.804;7.126;2023-05-15T12:01:18;21.10;;;14.23;;
33954;SDS011;20233;50.804;7.126;2023-05-15T12:03:45;16.85;;;11.98;;
33954;SDS011;20233;50.804;7.126;2023-05-15T12:06:12;14.18;;;8.65;;
33954;SDS011;20233;50.804;7.126;2023-05-15T12:08:38;13.30;;;9.82;;
33954;SDS011;20233;50.804;7.126;2023-05-15T12:11:06;14.10;;;9.38;;
33954;SDS011;20233;50.804;7.126;2023-05-15T12:13:32;14.48;;;10.77;;
33954;SDS011;20233;50.804;7.126;2023-05-15T12:15:59;15.85;;;11.82;;
33954;SDS011;20233;50.804;7.126;2023-05-15T12:18:26;17.88;;;12.13;;
33954;SDS011;20233;50.804;7.126;2023-05-15T12:20:52;18.00;;;12.82;;
33954;SDS011;20233;50.804;7.126;2023-05-15T12:23:20;19.42;;;13.52;;
33954;SDS011;20233;50.804;7.126;2023-05-15T12:25:46;18.88;;;12.85;;
33954;SDS011;20233;50.804;7.126;2023-05-15T12:28:15;21.95;;;12.07;;
33954;SDS011;20233;50.804;7.126;2023-05-15T12:30:41;15.75;;;12.85;;
33954;SDS011;20233;50.804;7.126;2023-05-15T12:33:08;14.55;;;12.23;;
33954;SDS011;20233;50.804;7.126;2023-05-15T12:35:35;18.85;;;12.23;;
33954;SDS011;20233;50.804;7.126;2023-05-15T12:38:05;16.67;;;12.10;;
33954;SDS011;20233;50.804;7.126;2023-05-15T12:40:34;19.30;;;12.20;;
33954;SDS011;20233;50.804;7.126;2023-05-15T12:43:04;18.55;;;12.82;;
33954;SDS011;20233;50.804;7.126;2023-05-15T12:45:31;14.53;;;11.47;;
33954;SDS011;20233;50.804;7.126;2023-05-15T12:48:00;16.20;;;10.88;;
33954;SDS011;20233;50.804;7.126;2023-05-15T12:50:27;16.02;;;11.63;;
33954;SDS011;20233;50.804;7.126;2023-05-15T12:52:56;14.45;;;11.82;;
33954;SDS011;20233;50.804;7.126;2023-05-15T12:57:48;14.10;;;10.05;;
33954;SDS011;20233;50.804;7.126;2023-05-15T13:00:14;10.55;;;8.45;;
33954;SDS011;20233;50.804;7.126;2023-05-15T13:02:43;10.45;;;9.00;;
33954;SDS011;20233;50.804;7.126;2023-05-15T13:05:09;10.82;;;8.85;;
33954;SDS011;20233;50.804;7.126;2023-05-15T13:07:37;12.40;;;7.70;;
33954;SDS011;20233;50.804;7.126;2023-05-15T13:10:06;9.37;;;7.97;;
33954;SDS011;20233;50.804;7.126;2023-05-15T13:12:36;10.73;;;6.35;;
33954;SDS011;20233;50.804;7.126;2023-05-15T13:15:03;12.55;;;7.88;;
33954;SDS011;20233;50.804;7.126;2023-05-15T13:17:31;9.13;;;7.28;;
33954;SDS011;20233;50.804;7.126;2023-05-15T13:20:00;8.65;;;5.72;;
33954;SDS011;20233;50.804;7.126;2023-05-15T13:22:26;6.78;;;4.85;;
33954;SDS011;20233;50.804;7.126;2023-05-15T13:24:52;13.10;;;6.55;;
33954;SDS011;20233;50.804;7.126;2023-05-15T13:27:18;8.13;;;6.47;;
33954;SDS011;20233;50.804;7.126;2023-05-15T13:29:43;7.60;;;5.93;;
33954;SDS011;20233;50.804;7.126;2023-05-15T13:32:09;12.07;;;7.78;;
33954;SDS011;20233;50.804;7.126;2023-05-15T13:34:34;11.95;;;8.25;;
33954;SDS011;20233;50.804;7.126;2023-05-15T13:37:02;12.05;;;8.30;;
33954;SDS011;20233;50.804;7.126;2023-05-15T13:39:28;10.43;;;7.88;;
33954;SDS011;20233;50.804;7.126;2023-05-15T13:41:53;10.98;;;6.57;;
33954;SDS011;20233;50.804;7.126;2023-05-15T13:44:19;6.63;;;5.70;;
33954;SDS011;20233;50.804;7.126;2023-05-15T13:46:45;8.05;;;6.10;;
33954;SDS011;20233;50.804;7.126;2023-05-15T13:49:10;12.07;;;7.32;;
33954;SDS011;20233;50.804;7.126;2023-05-15T13:51:38;12.50;;;7.60;;
33954;SDS011;20233;50.804;7.126;2023-05-15T13:54:04;12.75;;;7.28;;
33954;SDS011;20233;50.804;7.126;2023-05-15T13:56:29;11.13;;;8.40;;
33954;SDS011;20233;50.804;7.126;2023-05-15T13:58:55;14.85;;;8.73;;
33954;SDS011;20233;50.804;7.126;2023-05-15T14:01:21;10.27;;;8.10;;
33954;SDS011;20233;50.804;7.126;2023-05-15T14:03:49;10.50;;;7.68;;
33954;SDS011;20233;50.804;7.126;2023-05-15T14:06:15;10.35;;;7.65;;
33954;SDS011;20233;50.804;7.126;2023-05-15T14:08:40;10.82;;;8.43;;
33954;SDS011;20233;50.804;7.126;2023-05-15T14:11:06;11.23;;;7.10;;
33954;SDS011;20233;50.804;7.126;2023-05-15T14:13:32;10.45;;;7.03;;
33954;SDS011;20233;50.804;7.126;2023-05-15T14:15:58;11.57;;;8.40;;
33954;SDS011;20233;50.804;7.126;2023-05-15T14:18:23;11.23;;;6.97;;
33954;SDS011;20233;50.804;7.126;2023-05-15T14:20:49;6.13;;;5.30;;
33954;SDS011;20233;50.804;7.126;2023-05-15T14:23:16;12.00;;;8.02;;
33954;SDS011;20233;50.804;7.126;2023-05-15T14:25:42;8.60;;;6.38;;
33954;SDS011;20233;50.804;7.126;2023-05-15T14:28:09;12.60;;;9.23;;
33954;SDS011;20233;50.804;7.126;2023-05-15T14:30:35;14.38;;;8.95;;
33954;SDS011;20233;50.804;7.126;2023-05-15T14:33:01;9.38;;;7.35;;
33954;SDS011;20233;50.804;7.126;2023-05-15T14:35:27;9.05;;;7.60;;
33954;SDS011;20233;50.804;7.126;2023-05-15T14:37:53;10.40;;;7.10;;
33954;SDS011;20233;50.804;7.126;2023-05-15T14:40:18;10.57;;;7.10;;
33954;SDS011;20233;50.804;7.126;2023-05-15T14:42:44;10.05;;;6.38;;
33954;SDS011;20233;50.804;7.126;2023-05-15T14:45:09;7.05;;;5.57;;
33954;SDS011;20233;50.804;7.126;2023-05-15T14:47:35;5.80;;;5.00;;
33954;SDS011;20233;50.804;7.126;2023-05-15T14:50:01;6.63;;;4.72;;
33954;SDS011;20233;50.804;7.126;2023-05-15T14:52:27;7.68;;;5.07;;
33954;SDS011;20233;50.804;7.126;2023-05-15T14:54:52;8.80;;;6.05;;
33954;SDS011;20233;50.804;7.126;2023-05-15T14:57:18;9.70;;;6.28;;
33954;SDS011;20233;50.804;7.126;2023-05-15T14:59:45;8.45;;;6.68;;
33954;SDS011;20233;50.804;7.126;2023-05-15T15:02:11;10.88;;;7.47;;